Minerva Anna — SVNP — position and weather

sailwx.info

Track history (hours):
 
Tides and Currents Weather Stations Pressure Air Temp Water Temp Dewpoint Dewpoint Depression Visibility Wind Speed Wind Dir Waves Ship Positions

Minerva Anna

Last reported at 2017-Mar-15 19:16 UTC. Time now 2017-Mar-23 12:13 UTC.
Position N 41°00' E 028°60'.

Length 183 m; draft 8.2 m.

Type: Ship. MMSI: 240729000.

Date/timePositionNaut miles runAvg speedWind from/ knotsBaromVisibWave heightAir tempDewpointWater temp
2017-Mar-15 19:16N 41°00' E 028°60'6 7.8
2017-Mar-15 18:32N 40°55' E 028°58'7 6.9
2017-Mar-15 17:30N 40°50' E 028°51'7 1.3
2017-Mar-15 12:33N 40°43' E 028°49'0 0.4
2017-Mar-15 11:23N 40°44' E 028°50'1 0.6
2017-Mar-15 10:30N 40°44' E 028°50'1 0.7
2017-Mar-15 09:33N 40°45' E 028°51'2 0.8
2017-Mar-15 07:24N 40°46' E 028°51'4 3.9
2017-Mar-15 06:23N 40°42' E 028°52'1 1.0
2017-Mar-15 05:28N 40°43' E 028°52'1 0.9
2017-Mar-15 04:30N 40°44' E 028°52'1 0.8
2017-Mar-15 03:33N 40°45' E 028°52'1 0.5
2017-Mar-15 02:24N 40°46' E 028°52'0 0.1
2017-Mar-15 01:33N 40°46' E 028°52'0 0.3
2017-Mar-15 00:33N 40°46' E 028°52'0 0.3
2017-Mar-14 23:33N 40°46' E 028°52'0 0.2
2017-Mar-14 22:33N 40°46' E 028°52'0 0.1
2017-Mar-14 21:32N 40°46' E 028°52'0 0.1
2017-Mar-14 20:26N 40°46' E 028°51'0 0.1
2017-Mar-14 19:30N 40°46' E 028°52'0 0.3
2017-Mar-14 18:33N 40°46' E 028°52'0 0.4
2017-Mar-14 17:33N 40°47' E 028°52'1 0.6
2017-Mar-14 16:32N 40°47' E 028°52'1 0.7
2017-Mar-14 15:32N 40°48' E 028°53'1 1.1
2017-Mar-14 14:31N 40°49' E 028°53'11 7.9
2017-Mar-14 13:06N 40°39' E 028°46'1 1.8
2017-Mar-14 12:33N 40°38' E 028°45'1 0.6
2017-Mar-14 11:28N 40°39' E 028°45'1 0.6
2017-Mar-14 10:22N 40°40' E 028°45'3 0.5
2017-Mar-14 05:29N 40°42' E 028°44'0 0.4
2017-Mar-14 04:19N 40°43' E 028°44'0 0.4
2017-Mar-14 03:33N 40°43' E 028°43'0 0.3
2017-Mar-14 02:19N 40°43' E 028°43'0 0.2
2017-Mar-14 01:28N 40°43' E 028°43'0 0.0
2017-Mar-14 00:33N 40°43' E 028°43'0 0.2
2017-Mar-13 23:30N 40°43' E 028°43'0 0.4
2017-Mar-13 22:27N 40°43' E 028°43'0 0.4
2017-Mar-13 21:32N 40°43' E 028°44'1 0.5
2017-Mar-13 19:12N 40°44' E 028°45'1 1.4
2017-Mar-13 18:24N 40°44' E 028°46'  
2017-Mar-11 06:25N 39°42' E 024°52'5 5.6
2017-Mar-11 05:33N 39°42' E 024°46'3 2.7
2017-Mar-11 04:24N 39°42' E 024°50'10 2.4
2017-Mar-11 00:12N 39°41' E 025°03'5 3.0
2017-Mar-10 22:24N 39°39' E 025°10'123 3.0
2017-Mar-09 05:25N 37°41' E 024°31'  
2017-Mar-06 20:19N 35°37' E 014°36'911.6
2017-Mar-06 19:33N 35°46' E 014°36'3 3.2
2017-Mar-06 18:28N 35°49' E 014°36'0 0.0
2017-Mar-06 17:25N 35°49' E 014°36'0 0.0
2017-Mar-06 16:28N 35°49' E 014°36'0 0.0
2017-Mar-06 15:28N 35°49' E 014°36'1 1.0
2017-Mar-06 14:33N 35°49' E 014°37'8 8.2
2017-Mar-06 13:33N 35°55' E 014°45'6 5.8
2017-Mar-06 12:30N 35°58' E 014°51'0 0.1
2017-Mar-06 11:30N 35°58' E 014°51'0 0.0
2017-Mar-06 10:30N 35°58' E 014°51'0 0.0
2017-Mar-06 09:30N 35°58' E 014°51'0 0.0
2017-Mar-06 08:33N 35°58' E 014°51'0 0.0
2017-Mar-06 07:33N 35°58' E 014°51'0 0.1
2017-Mar-06 06:33N 35°58' E 014°51'0 0.0
2017-Mar-06 05:33N 35°58' E 014°51'0 0.0
2017-Mar-06 04:33N 35°58' E 014°51'0 0.0
2017-Mar-06 03:33N 35°58' E 014°51'0 0.1
2017-Mar-06 02:33N 35°58' E 014°51'0 0.0
2017-Mar-06 01:33N 35°58' E 014°51'0 0.0
2017-Mar-06 00:33N 35°58' E 014°51'0 0.0
2017-Mar-05 23:33N 35°58' E 014°51'0 0.0
2017-Mar-05 22:33N 35°58' E 014°51'5 4.7
2017-Mar-05 21:32N 36°02' E 014°55'  
Track history (hours):
 
Tides and Currents Weather Stations Pressure Air Temp Water Temp Dewpoint Dewpoint Depression Visibility Wind Speed Wind Dir Waves Ship Positions

Minerva Anna

Last reported at 2017-Mar-15 19:16 UTC. Time now 2017-Mar-23 12:13 UTC.
Position N 41°00' E 028°60'.

Length 183 m; draft 8.2 m.

Type: Ship. MMSI: 240729000.

Date/timePositionNaut miles runAvg speedWind from/ knotsBaromVisibWave heightAir tempDewpointWater temp
2017-Mar-15 19:16N 41°00' E 028°60'6 7.8
2017-Mar-15 18:32N 40°55' E 028°58'7 6.9
2017-Mar-15 17:30N 40°50' E 028°51'7 1.3
2017-Mar-15 12:33N 40°43' E 028°49'0 0.4
2017-Mar-15 11:23N 40°44' E 028°50'1 0.6
2017-Mar-15 10:30N 40°44' E 028°50'1 0.7
2017-Mar-15 09:33N 40°45' E 028°51'2 0.8
2017-Mar-15 07:24N 40°46' E 028°51'4 3.9
2017-Mar-15 06:23N 40°42' E 028°52'1 1.0
2017-Mar-15 05:28N 40°43' E 028°52'1 0.9
2017-Mar-15 04:30N 40°44' E 028°52'1 0.8
2017-Mar-15 03:33N 40°45' E 028°52'1 0.5
2017-Mar-15 02:24N 40°46' E 028°52'0 0.1
2017-Mar-15 01:33N 40°46' E 028°52'0 0.3
2017-Mar-15 00:33N 40°46' E 028°52'0 0.3
2017-Mar-14 23:33N 40°46' E 028°52'0 0.2
2017-Mar-14 22:33N 40°46' E 028°52'0 0.1
2017-Mar-14 21:32N 40°46' E 028°52'0 0.1
2017-Mar-14 20:26N 40°46' E 028°51'0 0.1
2017-Mar-14 19:30N 40°46' E 028°52'0 0.3
2017-Mar-14 18:33N 40°46' E 028°52'0 0.4
2017-Mar-14 17:33N 40°47' E 028°52'1 0.6
2017-Mar-14 16:32N 40°47' E 028°52'1 0.7
2017-Mar-14 15:32N 40°48' E 028°53'1 1.1
2017-Mar-14 14:31N 40°49' E 028°53'11 7.9
2017-Mar-14 13:06N 40°39' E 028°46'1 1.8
2017-Mar-14 12:33N 40°38' E 028°45'1 0.6
2017-Mar-14 11:28N 40°39' E 028°45'1 0.6
2017-Mar-14 10:22N 40°40' E 028°45'3 0.5
2017-Mar-14 05:29N 40°42' E 028°44'0 0.4
2017-Mar-14 04:19N 40°43' E 028°44'0 0.4
2017-Mar-14 03:33N 40°43' E 028°43'0 0.3
2017-Mar-14 02:19N 40°43' E 028°43'0 0.2
2017-Mar-14 01:28N 40°43' E 028°43'0 0.0
2017-Mar-14 00:33N 40°43' E 028°43'0 0.2
2017-Mar-13 23:30N 40°43' E 028°43'0 0.4
2017-Mar-13 22:27N 40°43' E 028°43'0 0.4
2017-Mar-13 21:32N 40°43' E 028°44'1 0.5
2017-Mar-13 19:12N 40°44' E 028°45'1 1.4
2017-Mar-13 18:24N 40°44' E 028°46'  
2017-Mar-11 06:25N 39°42' E 024°52'5 5.6
2017-Mar-11 05:33N 39°42' E 024°46'3 2.7
2017-Mar-11 04:24N 39°42' E 024°50'10 2.4
2017-Mar-11 00:12N 39°41' E 025°03'5 3.0
2017-Mar-10 22:24N 39°39' E 025°10'123 3.0
2017-Mar-09 05:25N 37°41' E 024°31'  
2017-Mar-06 20:19N 35°37' E 014°36'911.6
2017-Mar-06 19:33N 35°46' E 014°36'3 3.2
2017-Mar-06 18:28N 35°49' E 014°36'0 0.0
2017-Mar-06 17:25N 35°49' E 014°36'0 0.0
2017-Mar-06 16:28N 35°49' E 014°36'0 0.0
2017-Mar-06 15:28N 35°49' E 014°36'1 1.0
2017-Mar-06 14:33N 35°49' E 014°37'8 8.2
2017-Mar-06 13:33N 35°55' E 014°45'6 5.8
2017-Mar-06 12:30N 35°58' E 014°51'0 0.1
2017-Mar-06 11:30N 35°58' E 014°51'0 0.0
2017-Mar-06 10:30N 35°58' E 014°51'0 0.0
2017-Mar-06 09:30N 35°58' E 014°51'0 0.0
2017-Mar-06 08:33N 35°58' E 014°51'0 0.0
2017-Mar-06 07:33N 35°58' E 014°51'0 0.1
2017-Mar-06 06:33N 35°58' E 014°51'0 0.0
2017-Mar-06 05:33N 35°58' E 014°51'0 0.0
2017-Mar-06 04:33N 35°58' E 014°51'0 0.0
2017-Mar-06 03:33N 35°58' E 014°51'0 0.1
2017-Mar-06 02:33N 35°58' E 014°51'0 0.0
2017-Mar-06 01:33N 35°58' E 014°51'0 0.0
2017-Mar-06 00:33N 35°58' E 014°51'0 0.0
2017-Mar-05 23:33N 35°58' E 014°51'0 0.0
2017-Mar-05 22:33N 35°58' E 014°51'5 4.7
2017-Mar-05 21:32N 36°02' E 014°55'  

Dump ship's entire track history